sensor_id;sensor_type;location;lat;lon;timestamp;P1;durP1;ratioP1;P2;durP2;ratioP2
47481;SDS011;33219;47.410;9.730;2023-03-19T00:00:50;12.50;;;7.00;;
47481;SDS011;33219;47.410;9.730;2023-03-19T00:03:18;12.00;;;7.12;;
47481;SDS011;33219;47.410;9.730;2023-03-19T00:05:49;13.22;;;7.50;;
47481;SDS011;33219;47.410;9.730;2023-03-19T00:08:18;10.55;;;7.20;;
47481;SDS011;33219;47.410;9.730;2023-03-19T00:10:46;11.70;;;7.60;;
47481;SDS011;33219;47.410;9.730;2023-03-19T00:13:14;12.98;;;6.87;;
47481;SDS011;33219;47.410;9.730;2023-03-19T00:15:41;14.68;;;7.75;;
47481;SDS011;33219;47.410;9.730;2023-03-19T00:18:09;12.07;;;6.75;;
47481;SDS011;33219;47.410;9.730;2023-03-19T00:20:36;12.60;;;6.83;;
47481;SDS011;33219;47.410;9.730;2023-03-19T00:23:04;12.10;;;6.58;;
47481;SDS011;33219;47.410;9.730;2023-03-19T00:25:32;9.60;;;5.90;;
47481;SDS011;33219;47.410;9.730;2023-03-19T00:27:59;10.78;;;6.30;;
47481;SDS011;33219;47.410;9.730;2023-03-19T00:30:27;9.53;;;5.65;;
47481;SDS011;33219;47.410;9.730;2023-03-19T00:32:54;10.48;;;6.60;;
47481;SDS011;33219;47.410;9.730;2023-03-19T00:35:22;6.92;;;4.53;;
47481;SDS011;33219;47.410;9.730;2023-03-19T00:37:50;6.80;;;3.92;;
47481;SDS011;33219;47.410;9.730;2023-03-19T00:40:17;6.92;;;3.47;;
47481;SDS011;33219;47.410;9.730;2023-03-19T00:42:45;11.30;;;2.92;;
47481;SDS011;33219;47.410;9.730;2023-03-19T00:45:13;4.97;;;2.90;;
47481;SDS011;33219;47.410;9.730;2023-03-19T00:47:41;4.58;;;3.00;;
47481;SDS011;33219;47.410;9.730;2023-03-19T00:50:09;4.42;;;3.00;;
47481;SDS011;33219;47.410;9.730;2023-03-19T00:52:37;5.55;;;3.25;;
47481;SDS011;33219;47.410;9.730;2023-03-19T00:55:04;5.80;;;3.20;;
47481;SDS011;33219;47.410;9.730;2023-03-19T00:57:32;6.15;;;3.00;;
47481;SDS011;33219;47.410;9.730;2023-03-19T01:00:00;6.08;;;3.17;;
47481;SDS011;33219;47.410;9.730;2023-03-19T01:02:29;7.03;;;3.67;;
47481;SDS011;33219;47.410;9.730;2023-03-19T01:04:57;5.83;;;2.85;;
47481;SDS011;33219;47.410;9.730;2023-03-19T01:07:25;5.78;;;3.20;;
47481;SDS011;33219;47.410;9.730;2023-03-19T01:09:53;6.62;;;3.47;;
47481;SDS011;33219;47.410;9.730;2023-03-19T01:12:20;5.45;;;3.30;;
47481;SDS011;33219;47.410;9.730;2023-03-19T01:14:48;5.75;;;3.33;;
47481;SDS011;33219;47.410;9.730;2023-03-19T01:17:17;8.50;;;3.47;;
47481;SDS011;33219;47.410;9.730;2023-03-19T01:19:44;7.10;;;3.55;;
47481;SDS011;33219;47.410;9.730;2023-03-19T01:22:12;7.33;;;3.08;;
47481;SDS011;33219;47.410;9.730;2023-03-19T01:24:41;6.80;;;3.30;;
47481;SDS011;33219;47.410;9.730;2023-03-19T01:27:09;6.78;;;3.60;;
47481;SDS011;33219;47.410;9.730;2023-03-19T01:29:37;5.60;;;2.90;;
47481;SDS011;33219;47.410;9.730;2023-03-19T01:32:04;4.90;;;2.80;;
47481;SDS011;33219;47.410;9.730;2023-03-19T01:34:32;7.37;;;3.12;;
47481;SDS011;33219;47.410;9.730;2023-03-19T01:37:00;5.95;;;3.00;;
47481;SDS011;33219;47.410;9.730;2023-03-19T01:39:27;5.40;;;2.62;;
47481;SDS011;33219;47.410;9.730;2023-03-19T01:41:59;6.33;;;2.90;;
47481;SDS011;33219;47.410;9.730;2023-03-19T01:44:30;6.67;;;3.00;;
47481;SDS011;33219;47.410;9.730;2023-03-19T01:47:03;4.92;;;2.80;;
47481;SDS011;33219;47.410;9.730;2023-03-19T01:49:32;4.72;;;2.85;;
47481;SDS011;33219;47.410;9.730;2023-03-19T01:52:01;4.92;;;2.67;;
47481;SDS011;33219;47.410;9.730;2023-03-19T01:54:30;5.60;;;3.05;;
47481;SDS011;33219;47.410;9.730;2023-03-19T01:57:01;5.92;;;3.08;;
47481;SDS011;33219;47.410;9.730;2023-03-19T01:59:35;5.28;;;2.85;;
47481;SDS011;33219;47.410;9.730;2023-03-19T02:02:21;4.85;;;2.87;;
47481;SDS011;33219;47.410;9.730;2023-03-19T02:04:37;4.65;;;2.90;;
47481;SDS011;33219;47.410;9.730;2023-03-19T02:07:08;5.97;;;3.17;;
47481;SDS011;33219;47.410;9.730;2023-03-19T02:09:37;6.78;;;3.22;;
47481;SDS011;33219;47.410;9.730;2023-03-19T02:12:06;7.05;;;4.40;;
47481;SDS011;33219;47.410;9.730;2023-03-19T02:14:34;6.62;;;3.98;;
47481;SDS011;33219;47.410;9.730;2023-03-19T02:17:02;7.12;;;4.30;;
47481;SDS011;33219;47.410;9.730;2023-03-19T02:22:16;10.90;;;5.00;;
47481;SDS011;33219;47.410;9.730;2023-03-19T02:24:54;7.95;;;4.67;;
47481;SDS011;33219;47.410;9.730;2023-03-19T02:27:26;7.08;;;4.28;;
47481;SDS011;33219;47.410;9.730;2023-03-19T02:29:53;8.63;;;4.62;;
47481;SDS011;33219;47.410;9.730;2023-03-19T02:32:21;9.63;;;4.47;;
47481;SDS011;33219;47.410;9.730;2023-03-19T02:34:49;8.18;;;4.37;;
47481;SDS011;33219;47.410;9.730;2023-03-19T02:37:18;7.37;;;3.98;;
47481;SDS011;33219;47.410;9.730;2023-03-19T02:42:18;7.95;;;5.20;;
47481;SDS011;33219;47.410;9.730;2023-03-19T02:44:47;6.55;;;3.30;;
47481;SDS011;33219;47.410;9.730;2023-03-19T02:47:15;6.47;;;3.58;;
47481;SDS011;33219;47.410;9.730;2023-03-19T02:49:43;6.50;;;3.30;;
47481;SDS011;33219;47.410;9.730;2023-03-19T02:52:10;8.28;;;4.95;;
47481;SDS011;33219;47.410;9.730;2023-03-19T02:54:38;8.45;;;4.87;;
47481;SDS011;33219;47.410;9.730;2023-03-19T02:57:06;7.17;;;4.50;;
47481;SDS011;33219;47.410;9.730;2023-03-19T02:59:34;8.30;;;4.78;;
47481;SDS011;33219;47.410;9.730;2023-03-19T03:02:03;10.15;;;6.15;;
47481;SDS011;33219;47.410;9.730;2023-03-19T03:04:31;10.90;;;6.28;;
47481;SDS011;33219;47.410;9.730;2023-03-19T03:07:02;12.50;;;6.20;;
47481;SDS011;33219;47.410;9.730;2023-03-19T03:09:30;9.93;;;7.15;;
47481;SDS011;33219;47.410;9.730;2023-03-19T03:11:58;10.10;;;6.72;;
47481;SDS011;33219;47.410;9.730;2023-03-19T03:14:26;9.33;;;6.25;;
47481;SDS011;33219;47.410;9.730;2023-03-19T03:16:53;7.80;;;5.50;;
47481;SDS011;33219;47.410;9.730;2023-03-19T03:19:22;10.05;;;5.35;;
47481;SDS011;33219;47.410;9.730;2023-03-19T03:21:49;8.00;;;5.15;;
47481;SDS011;33219;47.410;9.730;2023-03-19T03:24:17;9.55;;;5.55;;
47481;SDS011;33219;47.410;9.730;2023-03-19T03:26:44;10.65;;;6.20;;
47481;SDS011;33219;47.410;9.730;2023-03-19T03:29:12;9.73;;;5.90;;
47481;SDS011;33219;47.410;9.730;2023-03-19T03:31:40;6.70;;;4.12;;
47481;SDS011;33219;47.410;9.730;2023-03-19T03:34:07;6.33;;;3.55;;
47481;SDS011;33219;47.410;9.730;2023-03-19T03:36:35;5.05;;;3.17;;
47481;SDS011;33219;47.410;9.730;2023-03-19T03:39:03;7.20;;;3.10;;
47481;SDS011;33219;47.410;9.730;2023-03-19T03:41:31;4.85;;;3.40;;
47481;SDS011;33219;47.410;9.730;2023-03-19T03:43:58;5.55;;;3.00;;
47481;SDS011;33219;47.410;9.730;2023-03-19T03:46:26;6.30;;;3.92;;
47481;SDS011;33219;47.410;9.730;2023-03-19T03:48:54;4.53;;;2.45;;
47481;SDS011;33219;47.410;9.730;2023-03-19T03:51:22;5.53;;;2.98;;
47481;SDS011;33219;47.410;9.730;2023-03-19T03:53:49;6.75;;;2.77;;
47481;SDS011;33219;47.410;9.730;2023-03-19T03:56:17;6.78;;;2.70;;
47481;SDS011;33219;47.410;9.730;2023-03-19T03:58:44;7.03;;;2.58;;
47481;SDS011;33219;47.410;9.730;2023-03-19T04:01:15;6.67;;;2.60;;
47481;SDS011;33219;47.410;9.730;2023-03-19T04:03:44;7.17;;;2.75;;
47481;SDS011;33219;47.410;9.730;2023-03-19T04:06:12;4.45;;;2.20;;
47481;SDS011;33219;47.410;9.730;2023-03-19T04:08:45;5.62;;;3.00;;
47481;SDS011;33219;47.410;9.730;2023-03-19T04:11:13;4.65;;;2.47;;
47481;SDS011;33219;47.410;9.730;2023-03-19T04:13:40;3.42;;;2.47;;
47481;SDS011;33219;47.410;9.730;2023-03-19T04:16:09;7.30;;;2.83;;
47481;SDS011;33219;47.410;9.730;2023-03-19T04:18:37;5.70;;;2.70;;
47481;SDS011;33219;47.410;9.730;2023-03-19T04:21:05;6.62;;;3.72;;
47481;SDS011;33219;47.410;9.730;2023-03-19T04:23:33;6.92;;;4.95;;
47481;SDS011;33219;47.410;9.730;2023-03-19T04:26:01;8.50;;;5.30;;
47481;SDS011;33219;47.410;9.730;2023-03-19T04:28:31;6.47;;;4.00;;
47481;SDS011;33219;47.410;9.730;2023-03-19T04:31:05;6.15;;;4.00;;
47481;SDS011;33219;47.410;9.730;2023-03-19T04:33:30;7.22;;;3.37;;
47481;SDS011;33219;47.410;9.730;2023-03-19T04:35:59;6.10;;;3.30;;
47481;SDS011;33219;47.410;9.730;2023-03-19T04:38:27;6.20;;;3.30;;
47481;SDS011;33219;47.410;9.730;2023-03-19T04:40:55;6.30;;;3.52;;
47481;SDS011;33219;47.410;9.730;2023-03-19T04:43:23;4.67;;;2.70;;
47481;SDS011;33219;47.410;9.730;2023-03-19T04:45:52;4.53;;;2.50;;
47481;SDS011;33219;47.410;9.730;2023-03-19T04:48:19;5.72;;;2.70;;
47481;SDS011;33219;47.410;9.730;2023-03-19T04:50:47;4.85;;;2.80;;
47481;SDS011;33219;47.410;9.730;2023-03-19T04:53:17;5.35;;;2.70;;
47481;SDS011;33219;47.410;9.730;2023-03-19T04:55:46;5.80;;;2.58;;
47481;SDS011;33219;47.410;9.730;2023-03-19T04:58:14;5.50;;;2.72;;
47481;SDS011;33219;47.410;9.730;2023-03-19T05:00:42;4.78;;;2.83;;
47481;SDS011;33219;47.410;9.730;2023-03-19T05:03:12;5.85;;;3.05;;
47481;SDS011;33219;47.410;9.730;2023-03-19T05:05:40;5.75;;;2.72;;
47481;SDS011;33219;47.410;9.730;2023-03-19T05:08:08;7.37;;;2.90;;
47481;SDS011;33219;47.410;9.730;2023-03-19T05:10:36;5.35;;;2.80;;
47481;SDS011;33219;47.410;9.730;2023-03-19T05:13:04;4.60;;;2.67;;
47481;SDS011;33219;47.410;9.730;2023-03-19T05:15:32;7.40;;;3.10;;
47481;SDS011;33219;47.410;9.730;2023-03-19T05:17:59;4.30;;;2.65;;
47481;SDS011;33219;47.410;9.730;2023-03-19T05:20:27;6.62;;;3.10;;
47481;SDS011;33219;47.410;9.730;2023-03-19T05:22:55;5.35;;;2.50;;
47481;SDS011;33219;47.410;9.730;2023-03-19T05:25:22;6.08;;;2.77;;
47481;SDS011;33219;47.410;9.730;2023-03-19T05:27:50;4.53;;;2.75;;
47481;SDS011;33219;47.410;9.730;2023-03-19T05:30:17;7.20;;;3.40;;
47481;SDS011;33219;47.410;9.730;2023-03-19T05:32:45;4.95;;;2.80;;
47481;SDS011;33219;47.410;9.730;2023-03-19T05:35:13;8.28;;;3.50;;
47481;SDS011;33219;47.410;9.730;2023-03-19T05:37:42;7.28;;;3.08;;
47481;SDS011;33219;47.410;9.730;2023-03-19T05:40:10;5.72;;;2.80;;
47481;SDS011;33219;47.410;9.730;2023-03-19T05:42:38;5.37;;;3.33;;
47481;SDS011;33219;47.410;9.730;2023-03-19T05:45:06;7.97;;;3.87;;
47481;SDS011;33219;47.410;9.730;2023-03-19T05:47:34;6.35;;;3.08;;
47481;SDS011;33219;47.410;9.730;2023-03-19T05:50:02;5.65;;;2.95;;
47481;SDS011;33219;47.410;9.730;2023-03-19T05:52:29;5.67;;;2.95;;
47481;SDS011;33219;47.410;9.730;2023-03-19T05:54:57;4.87;;;2.77;;
47481;SDS011;33219;47.410;9.730;2023-03-19T05:57:25;4.67;;;2.75;;
47481;SDS011;33219;47.410;9.730;2023-03-19T05:59:52;4.55;;;2.75;;
47481;SDS011;33219;47.410;9.730;2023-03-19T06:02:20;6.45;;;2.92;;
47481;SDS011;33219;47.410;9.730;2023-03-19T06:04:48;6.37;;;2.98;;
47481;SDS011;33219;47.410;9.730;2023-03-19T06:07:15;5.62;;;2.52;;
47481;SDS011;33219;47.410;9.730;2023-03-19T06:09:43;5.53;;;2.83;;
47481;SDS011;33219;47.410;9.730;2023-03-19T06:12:11;4.75;;;2.70;;
47481;SDS011;33219;47.410;9.730;2023-03-19T06:14:39;4.97;;;2.92;;
47481;SDS011;33219;47.410;9.730;2023-03-19T06:17:06;8.90;;;3.05;;
47481;SDS011;33219;47.410;9.730;2023-03-19T06:19:34;4.25;;;2.80;;
47481;SDS011;33219;47.410;9.730;2023-03-19T06:22:02;6.33;;;3.00;;
47481;SDS011;33219;47.410;9.730;2023-03-19T06:24:29;8.13;;;3.22;;
47481;SDS011;33219;47.410;9.730;2023-03-19T06:26:58;5.65;;;3.10;;
47481;SDS011;33219;47.410;9.730;2023-03-19T06:29:25;6.65;;;2.92;;
47481;SDS011;33219;47.410;9.730;2023-03-19T06:31:53;7.28;;;3.15;;
47481;SDS011;33219;47.410;9.730;2023-03-19T06:34:21;6.17;;;2.62;;
47481;SDS011;33219;47.410;9.730;2023-03-19T06:36:49;7.95;;;5.55;;
47481;SDS011;33219;47.410;9.730;2023-03-19T06:39:18;8.35;;;5.53;;
47481;SDS011;33219;47.410;9.730;2023-03-19T06:41:46;8.35;;;5.47;;
47481;SDS011;33219;47.410;9.730;2023-03-19T06:44:14;8.13;;;5.62;;
47481;SDS011;33219;47.410;9.730;2023-03-19T06:46:41;10.70;;;5.60;;
47481;SDS011;33219;47.410;9.730;2023-03-19T06:49:09;8.05;;;5.75;;
47481;SDS011;33219;47.410;9.730;2023-03-19T06:51:37;8.55;;;5.90;;
47481;SDS011;33219;47.410;9.730;2023-03-19T06:54:04;10.23;;;5.83;;
47481;SDS011;33219;47.410;9.730;2023-03-19T06:56:32;11.18;;;6.30;;
47481;SDS011;33219;47.410;9.730;2023-03-19T06:59:00;9.45;;;6.37;;
47481;SDS011;33219;47.410;9.730;2023-03-19T07:01:27;8.55;;;6.17;;
47481;SDS011;33219;47.410;9.730;2023-03-19T07:03:55;11.33;;;6.45;;
47481;SDS011;33219;47.410;9.730;2023-03-19T07:06:22;11.22;;;6.03;;
47481;SDS011;33219;47.410;9.730;2023-03-19T07:08:50;10.30;;;5.62;;
47481;SDS011;33219;47.410;9.730;2023-03-19T07:11:17;8.38;;;5.03;;
47481;SDS011;33219;47.410;9.730;2023-03-19T07:13:45;9.18;;;5.92;;
47481;SDS011;33219;47.410;9.730;2023-03-19T07:16:13;8.55;;;5.47;;
47481;SDS011;33219;47.410;9.730;2023-03-19T07:18:40;12.95;;;6.12;;
47481;SDS011;33219;47.410;9.730;2023-03-19T07:21:08;12.28;;;5.60;;
47481;SDS011;33219;47.410;9.730;2023-03-19T07:23:36;12.63;;;5.78;;
47481;SDS011;33219;47.410;9.730;2023-03-19T07:26:03;8.95;;;5.45;;
47481;SDS011;33219;47.410;9.730;2023-03-19T07:28:31;9.48;;;5.42;;
47481;SDS011;33219;47.410;9.730;2023-03-19T07:30:59;9.35;;;5.40;;
47481;SDS011;33219;47.410;9.730;2023-03-19T07:33:26;7.97;;;5.40;;
47481;SDS011;33219;47.410;9.730;2023-03-19T07:35:54;10.55;;;5.37;;
47481;SDS011;33219;47.410;9.730;2023-03-19T07:38:22;7.00;;;5.35;;
47481;SDS011;33219;47.410;9.730;2023-03-19T07:40:49;9.48;;;5.40;;
47481;SDS011;33219;47.410;9.730;2023-03-19T07:43:17;9.40;;;5.10;;
47481;SDS011;33219;47.410;9.730;2023-03-19T07:45:46;9.55;;;5.58;;
47481;SDS011;33219;47.410;9.730;2023-03-19T07:48:14;12.50;;;6.03;;
47481;SDS011;33219;47.410;9.730;2023-03-19T07:50:42;8.95;;;5.17;;
47481;SDS011;33219;47.410;9.730;2023-03-19T07:53:10;8.35;;;5.50;;
47481;SDS011;33219;47.410;9.730;2023-03-19T07:55:37;8.05;;;5.00;;
47481;SDS011;33219;47.410;9.730;2023-03-19T07:58:05;9.25;;;4.45;;
47481;SDS011;33219;47.410;9.730;2023-03-19T08:00:33;8.45;;;4.60;;
47481;SDS011;33219;47.410;9.730;2023-03-19T08:03:00;8.60;;;4.87;;
47481;SDS011;33219;47.410;9.730;2023-03-19T08:05:28;8.08;;;4.70;;
47481;SDS011;33219;47.410;9.730;2023-03-19T08:07:55;7.90;;;4.72;;
47481;SDS011;33219;47.410;9.730;2023-03-19T08:10:23;8.05;;;4.90;;
47481;SDS011;33219;47.410;9.730;2023-03-19T08:12:51;7.65;;;4.80;;
47481;SDS011;33219;47.410;9.730;2023-03-19T08:15:19;9.33;;;4.90;;
47481;SDS011;33219;47.410;9.730;2023-03-19T08:17:47;8.48;;;4.42;;
47481;SDS011;33219;47.410;9.730;2023-03-19T08:20:15;8.85;;;4.70;;
47481;SDS011;33219;47.410;9.730;2023-03-19T08:22:43;5.90;;;3.70;;
47481;SDS011;33219;47.410;9.730;2023-03-19T08:25:12;7.35;;;4.12;;
47481;SDS011;33219;47.410;9.730;2023-03-19T08:27:40;6.10;;;3.50;;
47481;SDS011;33219;47.410;9.730;2023-03-19T08:30:08;7.00;;;3.98;;
47481;SDS011;33219;47.410;9.730;2023-03-19T08:32:37;6.60;;;3.87;;
47481;SDS011;33219;47.410;9.730;2023-03-19T08:35:05;9.68;;;4.05;;
47481;SDS011;33219;47.410;9.730;2023-03-19T08:37:33;7.42;;;3.30;;
47481;SDS011;33219;47.410;9.730;2023-03-19T08:40:01;7.17;;;3.77;;
47481;SDS011;33219;47.410;9.730;2023-03-19T08:42:29;7.08;;;3.72;;
47481;SDS011;33219;47.410;9.730;2023-03-19T08:44:57;6.83;;;3.67;;
47481;SDS011;33219;47.410;9.730;2023-03-19T08:47:25;6.12;;;3.75;;
47481;SDS011;33219;47.410;9.730;2023-03-19T08:49:52;6.72;;;3.60;;
47481;SDS011;33219;47.410;9.730;2023-03-19T08:52:20;5.45;;;3.50;;
47481;SDS011;33219;47.410;9.730;2023-03-19T08:54:48;6.05;;;3.52;;
47481;SDS011;33219;47.410;9.730;2023-03-19T08:57:15;6.42;;;3.58;;
47481;SDS011;33219;47.410;9.730;2023-03-19T08:59:43;5.12;;;3.08;;
47481;SDS011;33219;47.410;9.730;2023-03-19T09:02:11;5.20;;;3.17;;
47481;SDS011;33219;47.410;9.730;2023-03-19T09:04:42;7.67;;;3.02;;
47481;SDS011;33219;47.410;9.730;2023-03-19T09:07:10;6.72;;;3.42;;
47481;SDS011;33219;47.410;9.730;2023-03-19T09:09:41;5.22;;;3.10;;
47481;SDS011;33219;47.410;9.730;2023-03-19T09:12:10;6.80;;;3.42;;
47481;SDS011;33219;47.410;9.730;2023-03-19T09:14:40;4.87;;;3.25;;
47481;SDS011;33219;47.410;9.730;2023-03-19T09:17:08;5.17;;;3.65;;
47481;SDS011;33219;47.410;9.730;2023-03-19T09:19:38;4.90;;;3.25;;
47481;SDS011;33219;47.410;9.730;2023-03-19T09:22:06;5.75;;;3.22;;
47481;SDS011;33219;47.410;9.730;2023-03-19T09:24:34;5.60;;;3.20;;
47481;SDS011;33219;47.410;9.730;2023-03-19T09:27:02;4.67;;;2.87;;
47481;SDS011;33219;47.410;9.730;2023-03-19T09:29:29;4.55;;;2.92;;
47481;SDS011;33219;47.410;9.730;2023-03-19T09:31:57;5.37;;;3.17;;
47481;SDS011;33219;47.410;9.730;2023-03-19T09:34:25;5.85;;;2.80;;
47481;SDS011;33219;47.410;9.730;2023-03-19T09:36:53;5.37;;;2.90;;
47481;SDS011;33219;47.410;9.730;2023-03-19T09:39:21;4.40;;;2.70;;
47481;SDS011;33219;47.410;9.730;2023-03-19T09:41:51;5.97;;;2.85;;
47481;SDS011;33219;47.410;9.730;2023-03-19T09:44:29;4.87;;;2.95;;
47481;SDS011;33219;47.410;9.730;2023-03-19T09:49:49;5.90;;;3.20;;
47481;SDS011;33219;47.410;9.730;2023-03-19T09:55:15;4.35;;;2.70;;
47481;SDS011;33219;47.410;9.730;2023-03-19T09:57:54;5.12;;;2.30;;
47481;SDS011;33219;47.410;9.730;2023-03-19T10:03:00;5.03;;;2.87;;
47481;SDS011;33219;47.410;9.730;2023-03-19T10:08:26;4.50;;;2.83;;
47481;SDS011;33219;47.410;9.730;2023-03-19T10:16:43;4.37;;;2.42;;
47481;SDS011;33219;47.410;9.730;2023-03-19T10:19:15;8.13;;;2.55;;
47481;SDS011;33219;47.410;9.730;2023-03-19T10:21:55;4.55;;;2.10;;
47481;SDS011;33219;47.410;9.730;2023-03-19T10:24:23;6.15;;;2.50;;
47481;SDS011;33219;47.410;9.730;2023-03-19T10:26:55;4.67;;;2.17;;
47481;SDS011;33219;47.410;9.730;2023-03-19T10:29:23;4.08;;;2.12;;
47481;SDS011;33219;47.410;9.730;2023-03-19T10:34:32;4.78;;;2.50;;
47481;SDS011;33219;47.410;9.730;2023-03-19T10:37:03;3.05;;;2.15;;
47481;SDS011;33219;47.410;9.730;2023-03-19T10:39:34;4.12;;;2.20;;
47481;SDS011;33219;47.410;9.730;2023-03-19T10:47:39;4.92;;;2.20;;
47481;SDS011;33219;47.410;9.730;2023-03-19T10:50:09;3.83;;;2.25;;
47481;SDS011;33219;47.410;9.730;2023-03-19T10:52:43;3.72;;;2.30;;
47481;SDS011;33219;47.410;9.730;2023-03-19T10:55:14;5.55;;;2.40;;
47481;SDS011;33219;47.410;9.730;2023-03-19T10:57:45;3.35;;;1.98;;
47481;SDS011;33219;47.410;9.730;2023-03-19T11:00:19;4.50;;;2.60;;
47481;SDS011;33219;47.410;9.730;2023-03-19T11:02:50;5.00;;;2.40;;
47481;SDS011;33219;47.410;9.730;2023-03-19T11:05:23;4.37;;;2.37;;
47481;SDS011;33219;47.410;9.730;2023-03-19T11:08:03;4.55;;;2.30;;
47481;SDS011;33219;47.410;9.730;2023-03-19T11:10:33;3.33;;;2.17;;
47481;SDS011;33219;47.410;9.730;2023-03-19T11:13:03;4.50;;;2.27;;
47481;SDS011;33219;47.410;9.730;2023-03-19T11:15:33;5.58;;;2.47;;
47481;SDS011;33219;47.410;9.730;2023-03-19T11:18:07;3.60;;;2.50;;
47481;SDS011;33219;47.410;9.730;2023-03-19T11:20:54;8.13;;;3.30;;
47481;SDS011;33219;47.410;9.730;2023-03-19T11:23:27;4.70;;;2.98;;
47481;SDS011;33219;47.410;9.730;2023-03-19T11:25:59;4.12;;;2.20;;
47481;SDS011;33219;47.410;9.730;2023-03-19T11:28:27;4.22;;;2.37;;
47481;SDS011;33219;47.410;9.730;2023-03-19T11:33:50;3.50;;;2.35;;
47481;SDS011;33219;47.410;9.730;2023-03-19T11:36:20;3.37;;;2.20;;
47481;SDS011;33219;47.410;9.730;2023-03-19T11:38:56;5.05;;;2.40;;
47481;SDS011;33219;47.410;9.730;2023-03-19T11:44:22;5.53;;;2.75;;
47481;SDS011;33219;47.410;9.730;2023-03-19T11:47:06;5.15;;;2.42;;
47481;SDS011;33219;47.410;9.730;2023-03-19T11:49:54;4.78;;;2.60;;
47481;SDS011;33219;47.410;9.730;2023-03-19T11:55:19;2.92;;;2.20;;
47481;SDS011;33219;47.410;9.730;2023-03-19T11:58:11;3.60;;;2.20;;
47481;SDS011;33219;47.410;9.730;2023-03-19T12:00:50;4.78;;;2.27;;
47481;SDS011;33219;47.410;9.730;2023-03-19T12:06:23;3.27;;;2.27;;
47481;SDS011;33219;47.410;9.730;2023-03-19T12:09:02;4.70;;;2.47;;
47481;SDS011;33219;47.410;9.730;2023-03-19T12:17:22;3.47;;;2.00;;
47481;SDS011;33219;47.410;9.730;2023-03-19T12:20:09;3.50;;;2.35;;
47481;SDS011;33219;47.410;9.730;2023-03-19T12:25:47;4.12;;;2.17;;
47481;SDS011;33219;47.410;9.730;2023-03-19T12:28:32;4.12;;;2.42;;
47481;SDS011;33219;47.410;9.730;2023-03-19T12:33:44;4.00;;;2.30;;
47481;SDS011;33219;47.410;9.730;2023-03-19T12:36:24;4.37;;;2.15;;
47481;SDS011;33219;47.410;9.730;2023-03-19T12:41:34;3.45;;;2.45;;
47481;SDS011;33219;47.410;9.730;2023-03-19T12:46:54;4.75;;;2.50;;
47481;SDS011;33219;47.410;9.730;2023-03-19T12:49:37;4.58;;;2.22;;
47481;SDS011;33219;47.410;9.730;2023-03-19T12:57:30;3.52;;;1.98;;
47481;SDS011;33219;47.410;9.730;2023-03-19T13:00:06;4.95;;;2.15;;
47481;SDS011;33219;47.410;9.730;2023-03-19T13:05:24;4.62;;;2.00;;
47481;SDS011;33219;47.410;9.730;2023-03-19T13:07:59;4.92;;;2.05;;
47481;SDS011;33219;47.410;9.730;2023-03-19T13:10:44;3.20;;;1.70;;
47481;SDS011;33219;47.410;9.730;2023-03-19T13:15:48;5.78;;;2.20;;
47481;SDS011;33219;47.410;9.730;2023-03-19T13:18:35;4.58;;;1.90;;
47481;SDS011;33219;47.410;9.730;2023-03-19T13:23:49;3.90;;;2.15;;
47481;SDS011;33219;47.410;9.730;2023-03-19T13:26:19;4.10;;;2.30;;
47481;SDS011;33219;47.410;9.730;2023-03-19T13:28:57;3.37;;;2.05;;
47481;SDS011;33219;47.410;9.730;2023-03-19T13:31:28;3.75;;;2.00;;
47481;SDS011;33219;47.410;9.730;2023-03-19T13:34:05;4.05;;;2.05;;
47481;SDS011;33219;47.410;9.730;2023-03-19T13:36:36;5.10;;;2.20;;
47481;SDS011;33219;47.410;9.730;2023-03-19T13:39:10;4.17;;;2.10;;
47481;SDS011;33219;47.410;9.730;2023-03-19T13:46:52;6.08;;;2.08;;
47481;SDS011;33219;47.410;9.730;2023-03-19T13:49:24;4.22;;;2.83;;
47481;SDS011;33219;47.410;9.730;2023-03-19T13:51:58;3.27;;;1.80;;
47481;SDS011;33219;47.410;9.730;2023-03-19T13:54:33;3.30;;;2.15;;
47481;SDS011;33219;47.410;9.730;2023-03-19T13:57:05;4.60;;;2.40;;
47481;SDS011;33219;47.410;9.730;2023-03-19T13:59:39;5.45;;;2.20;;
47481;SDS011;33219;47.410;9.730;2023-03-19T14:04:57;6.42;;;3.08;;
47481;SDS011;33219;47.410;9.730;2023-03-19T14:07:37;4.87;;;2.22;;
47481;SDS011;33219;47.410;9.730;2023-03-19T14:10:08;5.05;;;2.00;;
47481;SDS011;33219;47.410;9.730;2023-03-19T14:12:41;4.37;;;2.27;;
47481;SDS011;33219;47.410;9.730;2023-03-19T14:15:21;3.77;;;2.27;;
47481;SDS011;33219;47.410;9.730;2023-03-19T14:20:22;4.67;;;3.00;;
47481;SDS011;33219;47.410;9.730;2023-03-19T14:22:53;4.67;;;2.65;;
47481;SDS011;33219;47.410;9.730;2023-03-19T14:25:26;5.03;;;2.85;;
47481;SDS011;33219;47.410;9.730;2023-03-19T14:27:59;3.72;;;2.65;;
47481;SDS011;33219;47.410;9.730;2023-03-19T14:30:39;4.37;;;2.87;;
47481;SDS011;33219;47.410;9.730;2023-03-19T14:33:14;5.42;;;2.90;;
47481;SDS011;33219;47.410;9.730;2023-03-19T14:35:43;4.62;;;2.75;;
47481;SDS011;33219;47.410;9.730;2023-03-19T14:41:00;3.95;;;2.50;;
47481;SDS011;33219;47.410;9.730;2023-03-19T14:46:52;6.00;;;3.15;;
47481;SDS011;33219;47.410;9.730;2023-03-19T14:52:13;5.25;;;2.90;;
47481;SDS011;33219;47.410;9.730;2023-03-19T14:54:49;6.80;;;3.12;;
47481;SDS011;33219;47.410;9.730;2023-03-19T14:57:31;5.55;;;3.08;;
47481;SDS011;33219;47.410;9.730;2023-03-19T15:00:00;6.78;;;3.40;;
47481;SDS011;33219;47.410;9.730;2023-03-19T15:02:44;4.97;;;2.90;;
47481;SDS011;33219;47.410;9.730;2023-03-19T15:05:17;5.85;;;3.47;;
47481;SDS011;33219;47.410;9.730;2023-03-19T15:07:45;7.83;;;4.78;;
47481;SDS011;33219;47.410;9.730;2023-03-19T15:10:19;7.50;;;4.40;;
47481;SDS011;33219;47.410;9.730;2023-03-19T15:18:14;6.50;;;3.80;;
47481;SDS011;33219;47.410;9.730;2023-03-19T15:20:42;5.75;;;3.95;;
47481;SDS011;33219;47.410;9.730;2023-03-19T15:23:12;5.55;;;4.03;;
47481;SDS011;33219;47.410;9.730;2023-03-19T15:25:45;5.62;;;3.70;;
47481;SDS011;33219;47.410;9.730;2023-03-19T15:28:25;6.62;;;4.20;;
47481;SDS011;33219;47.410;9.730;2023-03-19T15:30:56;7.17;;;4.17;;
47481;SDS011;33219;47.410;9.730;2023-03-19T15:33:33;7.00;;;4.12;;
47481;SDS011;33219;47.410;9.730;2023-03-19T15:36:16;5.28;;;3.92;;
47481;SDS011;33219;47.410;9.730;2023-03-19T15:39:03;7.05;;;4.53;;
47481;SDS011;33219;47.410;9.730;2023-03-19T15:41:34;19.75;;;9.53;;
47481;SDS011;33219;47.410;9.730;2023-03-19T15:44:06;9.58;;;5.75;;
47481;SDS011;33219;47.410;9.730;2023-03-19T15:46:35;15.32;;;8.70;;
47481;SDS011;33219;47.410;9.730;2023-03-19T15:49:13;6.83;;;4.67;;
47481;SDS011;33219;47.410;9.730;2023-03-19T15:51:48;5.70;;;4.20;;
47481;SDS011;33219;47.410;9.730;2023-03-19T15:54:19;5.30;;;4.03;;
47481;SDS011;33219;47.410;9.730;2023-03-19T15:56:48;5.45;;;3.50;;
47481;SDS011;33219;47.410;9.730;2023-03-19T15:59:21;4.42;;;3.40;;
47481;SDS011;33219;47.410;9.730;2023-03-19T16:01:55;4.65;;;3.25;;
47481;SDS011;33219;47.410;9.730;2023-03-19T16:04:28;7.53;;;3.77;;
47481;SDS011;33219;47.410;9.730;2023-03-19T16:06:58;5.45;;;3.52;;
47481;SDS011;33219;47.410;9.730;2023-03-19T16:12:00;6.50;;;4.05;;
47481;SDS011;33219;47.410;9.730;2023-03-19T16:14:38;5.75;;;4.17;;
47481;SDS011;33219;47.410;9.730;2023-03-19T16:17:13;5.42;;;4.08;;
47481;SDS011;33219;47.410;9.730;2023-03-19T16:20:01;6.25;;;3.75;;
47481;SDS011;33219;47.410;9.730;2023-03-19T16:22:22;6.47;;;3.80;;
47481;SDS011;33219;47.410;9.730;2023-03-19T16:24:58;6.75;;;4.60;;
47481;SDS011;33219;47.410;9.730;2023-03-19T16:27:32;6.55;;;4.17;;
47481;SDS011;33219;47.410;9.730;2023-03-19T16:30:11;6.75;;;4.40;;
47481;SDS011;33219;47.410;9.730;2023-03-19T16:32:43;5.62;;;3.37;;
47481;SDS011;33219;47.410;9.730;2023-03-19T16:35:12;5.03;;;3.20;;
47481;SDS011;33219;47.410;9.730;2023-03-19T16:37:44;5.70;;;3.40;;
47481;SDS011;33219;47.410;9.730;2023-03-19T16:42:52;6.45;;;3.80;;
47481;SDS011;33219;47.410;9.730;2023-03-19T16:45:24;5.92;;;3.95;;